createdAt,value
2022-12-28T00:00:54.485Z,6.40
2022-12-28T00:03:22.046Z,6.40
2022-12-28T00:05:49.881Z,6.40
2022-12-28T00:08:17.400Z,6.30
2022-12-28T00:11:08.596Z,6.30
2022-12-28T00:13:13.265Z,6.20
2022-12-28T00:15:40.800Z,6.20
2022-12-28T00:18:09.103Z,6.20
2022-12-28T00:20:36.674Z,6.20
2022-12-28T00:23:06.902Z,6.20
2022-12-28T00:25:37.140Z,6.20
2022-12-28T00:28:04.704Z,6.20
2022-12-28T00:30:32.241Z,6.20
2022-12-28T00:32:59.753Z,6.20
2022-12-28T00:35:28.085Z,6.30
2022-12-28T00:37:55.610Z,6.20
2022-12-28T00:40:24.275Z,6.30
2022-12-28T00:42:50.717Z,6.30
2022-12-28T00:45:19.009Z,6.30
2022-12-28T00:47:46.533Z,6.30
2022-12-28T00:50:15.991Z,6.30
2022-12-28T00:52:43.421Z,6.30
2022-12-28T00:55:10.949Z,6.30
2022-12-28T00:57:38.535Z,6.30
2022-12-28T01:00:06.211Z,6.30
2022-12-28T01:02:33.781Z,6.30
2022-12-28T01:05:02.470Z,6.30
2022-12-28T01:07:30.005Z,6.20
2022-12-28T01:09:57.549Z,6.20
2022-12-28T01:12:26.157Z,6.20
2022-12-28T01:14:53.684Z,6.20
2022-12-28T01:17:21.197Z,6.20
2022-12-28T01:19:53.735Z,6.20
2022-12-28T01:22:17.057Z,6.20
2022-12-28T01:24:44.600Z,6.20
2022-12-28T01:27:12.166Z,6.40
2022-12-28T01:29:39.689Z,6.60
2022-12-28T01:32:07.246Z,6.60
2022-12-28T01:34:36.528Z,6.50
2022-12-28T01:37:04.826Z,6.50
2022-12-28T01:39:32.344Z,6.50
2022-12-28T01:42:00.673Z,6.40
2022-12-28T01:44:33.974Z,6.40
2022-12-28T01:47:01.496Z,6.50
2022-12-28T01:49:51.082Z,6.50
2022-12-28T01:52:21.648Z,6.40
2022-12-28T01:54:54.997Z,6.50
2022-12-28T01:57:22.529Z,6.50
2022-12-28T01:59:52.740Z,6.60
2022-12-28T02:02:20.750Z,6.60
2022-12-28T02:04:48.904Z,6.70
2022-12-28T02:07:17.197Z,6.70
2022-12-28T02:09:44.777Z,6.70
2022-12-28T02:12:12.306Z,6.80
2022-12-28T02:14:40.607Z,6.90
2022-12-28T02:17:08.335Z,6.90
2022-12-28T02:19:44.889Z,6.90
2022-12-28T02:22:39.973Z,7.00
2022-12-28T02:25:25.266Z,7.00
2022-12-28T02:27:55.559Z,7.10
2022-12-28T02:30:23.118Z,7.30
2022-12-28T02:32:53.510Z,7.40
2022-12-28T02:35:51.548Z,7.40
2022-12-28T02:38:27.624Z,7.40
2022-12-28T02:40:58.584Z,7.40
2022-12-28T02:43:26.796Z,7.40
2022-12-28T02:46:12.226Z,7.40
2022-12-28T02:49:03.509Z,7.40
2022-12-28T02:51:36.210Z,7.50
2022-12-28T02:54:46.439Z,7.80
2022-12-28T02:57:41.316Z,7.70
2022-12-28T03:00:11.502Z,7.70
2022-12-28T03:02:42.420Z,8.00
2022-12-28T03:05:27.791Z,8.00
2022-12-28T03:08:13.739Z,8.00
2022-12-28T03:10:44.156Z,7.90
2022-12-28T03:13:11.692Z,7.90
2022-12-28T03:15:39.265Z,7.90
2022-12-28T03:18:31.071Z,7.90
2022-12-28T03:21:17.272Z,7.90
2022-12-28T03:24:03.741Z,7.90
2022-12-28T03:26:49.486Z,7.90
2022-12-28T03:29:35.887Z,7.90
2022-12-28T03:32:03.423Z,7.90
2022-12-28T03:34:31.714Z,7.90
2022-12-28T03:37:05.118Z,7.80
2022-12-28T03:39:47.877Z,7.90
2022-12-28T03:42:33.765Z,7.90
2022-12-28T03:45:01.299Z,7.90
2022-12-28T03:47:28.840Z,8.10
2022-12-28T03:49:56.426Z,8.20
2022-12-28T03:52:23.939Z,8.20
2022-12-28T03:54:51.465Z,8.20
2022-12-28T03:57:19.389Z,8.40
2022-12-28T03:59:46.905Z,8.40
2022-12-28T04:02:14.508Z,8.40
2022-12-28T04:04:42.004Z,8.40
2022-12-28T04:07:09.543Z,8.30
2022-12-28T04:09:37.072Z,8.50
2022-12-28T04:12:04.653Z,8.70
2022-12-28T04:14:32.181Z,8.70
2022-12-28T04:16:59.727Z,8.60
2022-12-28T04:19:28.044Z,8.40
2022-12-28T04:21:55.569Z,8.40
2022-12-28T04:24:23.106Z,8.40
2022-12-28T04:26:51.437Z,8.30
2022-12-28T04:29:18.962Z,8.30
2022-12-28T04:31:46.526Z,8.30
2022-12-28T04:34:14.058Z,8.30
2022-12-28T04:36:42.364Z,8.50
2022-12-28T04:39:09.892Z,8.50
2022-12-28T04:41:37.455Z,8.50
2022-12-28T04:44:05.003Z,8.70
2022-12-28T04:46:32.593Z,8.70
2022-12-28T04:49:00.104Z,8.60
2022-12-28T04:51:27.639Z,8.80
2022-12-28T04:53:55.156Z,8.70
2022-12-28T04:56:23.485Z,8.50
2022-12-28T04:58:54.196Z,8.50
2022-12-28T05:01:21.799Z,8.50
2022-12-28T05:03:55.175Z,8.40
2022-12-28T05:06:17.864Z,8.40
2022-12-28T05:08:46.153Z,8.40
2022-12-28T05:11:20.225Z,8.30
2022-12-28T05:13:47.765Z,8.30
2022-12-28T05:16:15.358Z,8.30
2022-12-28T05:18:42.855Z,8.50
2022-12-28T05:21:10.370Z,8.50
2022-12-28T05:23:37.905Z,8.50
2022-12-28T05:26:05.481Z,8.40
2022-12-28T05:28:33.683Z,8.40
2022-12-28T05:31:01.182Z,8.40
2022-12-28T05:33:31.609Z,8.40
2022-12-28T05:36:07.926Z,8.40
2022-12-28T05:38:36.451Z,8.30
2022-12-28T05:41:09.447Z,8.30
2022-12-28T05:43:36.988Z,8.30
2022-12-28T05:46:04.551Z,8.30
2022-12-28T05:48:34.826Z,8.50
2022-12-28T05:51:02.353Z,8.60
2022-12-28T05:53:30.494Z,8.60
2022-12-28T05:56:12.140Z,8.60
2022-12-28T05:58:34.432Z,8.50
2022-12-28T06:01:08.497Z,8.50
2022-12-28T06:03:36.002Z,8.50
2022-12-28T06:06:06.851Z,8.50
2022-12-28T06:08:34.413Z,8.40
2022-12-28T06:11:04.701Z,8.50
2022-12-28T06:13:32.228Z,8.50
2022-12-28T06:15:59.788Z,8.40
2022-12-28T06:18:27.323Z,8.50
2022-12-28T06:20:57.114Z,8.40
2022-12-28T06:23:22.445Z,8.40
2022-12-28T06:25:49.979Z,8.60
2022-12-28T06:28:17.493Z,8.70
2022-12-28T06:30:52.246Z,8.60
2022-12-28T06:33:13.368Z,8.60
2022-12-28T06:35:40.900Z,8.60
2022-12-28T06:38:10.421Z,8.60
2022-12-28T06:41:11.706Z,8.60
2022-12-28T06:43:06.157Z,8.50
2022-12-28T06:45:33.780Z,8.50
2022-12-28T06:48:01.282Z,8.50
2022-12-28T06:50:28.806Z,8.50
2022-12-28T06:52:57.131Z,8.50
2022-12-28T06:55:24.645Z,8.50
2022-12-28T06:57:52.939Z,8.50
2022-12-28T07:00:20.494Z,8.50
2022-12-28T07:02:48.879Z,8.50
2022-12-28T07:05:16.300Z,8.50
2022-12-28T07:07:43.875Z,8.50
2022-12-28T07:10:12.157Z,8.50
2022-12-28T07:12:40.451Z,8.60
2022-12-28T07:15:09.977Z,8.50
2022-12-28T07:17:37.507Z,8.60
2022-12-28T07:20:05.159Z,8.50
2022-12-28T07:22:33.544Z,8.60
2022-12-28T07:25:01.140Z,8.60
2022-12-28T07:27:28.722Z,8.60
2022-12-28T07:29:57.459Z,8.60
2022-12-28T07:32:25.499Z,8.60
2022-12-28T07:34:53.015Z,8.60
2022-12-28T07:37:20.571Z,8.60
2022-12-28T07:39:48.124Z,8.60
2022-12-28T07:42:15.692Z,8.60
2022-12-28T07:44:48.906Z,8.70
2022-12-28T07:47:11.738Z,8.70
2022-12-28T07:49:39.295Z,8.70
2022-12-28T07:52:06.896Z,8.70
2022-12-28T07:54:35.221Z,8.70
2022-12-28T07:57:05.586Z,8.70
2022-12-28T07:59:33.183Z,8.80
2022-12-28T08:02:00.827Z,8.80
2022-12-28T08:04:28.316Z,9.00
2022-12-28T08:06:55.970Z,9.00
2022-12-28T08:09:23.466Z,9.00
2022-12-28T08:11:51.031Z,8.90
2022-12-28T08:14:18.653Z,8.90
2022-12-28T08:16:46.938Z,8.90
2022-12-28T08:19:14.490Z,8.90
2022-12-28T08:21:42.123Z,8.90
2022-12-28T08:24:09.962Z,8.90
2022-12-28T08:26:38.207Z,8.90
2022-12-28T08:29:05.789Z,8.80
2022-12-28T08:31:33.456Z,8.90
2022-12-28T08:34:00.888Z,8.90
2022-12-28T08:36:28.503Z,8.90
2022-12-28T08:38:56.056Z,8.90
2022-12-28T08:41:23.598Z,9.10
2022-12-28T08:43:51.201Z,9.10
2022-12-28T08:46:21.810Z,9.00
2022-12-28T08:48:49.188Z,9.00
2022-12-28T08:51:16.763Z,9.00
2022-12-28T08:53:44.310Z,9.00
2022-12-28T08:56:11.887Z,8.90
2022-12-28T08:58:40.703Z,8.90
2022-12-28T09:01:14.420Z,8.90
2022-12-28T09:03:41.798Z,8.90
2022-12-28T09:06:09.313Z,8.90
2022-12-28T09:08:36.847Z,9.10
2022-12-28T09:11:04.382Z,9.10
2022-12-28T09:13:32.242Z,9.30
2022-12-28T09:15:59.838Z,9.30
2022-12-28T09:18:27.317Z,9.20
2022-12-28T09:20:54.863Z,9.10
2022-12-28T09:23:22.400Z,9.10
2022-12-28T09:25:50.042Z,9.10
2022-12-28T09:28:17.612Z,9.30
2022-12-28T09:30:45.139Z,9.30
2022-12-28T09:33:25.550Z,9.20
2022-12-28T09:35:53.065Z,9.20
2022-12-28T09:38:20.601Z,9.20
2022-12-28T09:40:48.201Z,9.20
2022-12-28T09:43:15.704Z,9.20
2022-12-28T09:45:43.256Z,9.20
2022-12-28T09:48:10.813Z,9.20
2022-12-28T09:50:38.333Z,9.20
2022-12-28T09:53:05.880Z,9.20
2022-12-28T09:55:36.861Z,9.30
2022-12-28T09:58:04.383Z,9.30
2022-12-28T10:00:47.454Z,9.30
2022-12-28T10:03:20.778Z,9.40
2022-12-28T10:05:48.259Z,9.40
2022-12-28T10:08:17.157Z,9.40
2022-12-28T10:10:48.576Z,9.40
2022-12-28T10:15:51.618Z,9.50
2022-12-28T10:18:19.884Z,9.80
2022-12-28T10:20:47.447Z,9.80
2022-12-28T10:23:14.982Z,9.80
2022-12-28T10:25:43.277Z,9.70
2022-12-28T10:28:11.161Z,9.70
2022-12-28T10:30:44.692Z,9.70
2022-12-28T10:33:13.962Z,9.70
2022-12-28T10:35:39.783Z,9.70
2022-12-28T10:38:08.267Z,9.60
2022-12-28T10:40:35.713Z,9.60
2022-12-28T10:43:08.640Z,9.60
2022-12-28T10:45:36.233Z,9.60
2022-12-28T10:48:03.857Z,9.60
2022-12-28T10:50:38.047Z,9.60
2022-12-28T10:53:04.728Z,9.60
2022-12-28T10:55:33.216Z,9.80
2022-12-28T10:58:30.001Z,9.80
2022-12-28T11:00:54.456Z,9.80
2022-12-28T11:03:25.262Z,9.80
2022-12-28T11:05:57.351Z,9.70
2022-12-28T11:08:21.030Z,9.70
2022-12-28T11:10:49.105Z,9.70
2022-12-28T11:13:21.956Z,9.70
2022-12-28T11:15:47.505Z,9.60
2022-12-28T11:18:15.077Z,9.60
2022-12-28T11:20:45.460Z,9.80
2022-12-28T11:23:12.993Z,9.80
2022-12-28T11:25:41.535Z,9.80
2022-12-28T11:28:22.159Z,9.80
2022-12-28T11:30:48.287Z,9.90
2022-12-28T11:33:43.586Z,9.90
2022-12-28T11:36:17.723Z,10.10
2022-12-28T11:38:46.054Z,10.00
2022-12-28T11:41:13.579Z,9.90
2022-12-28T11:43:41.160Z,9.90
2022-12-28T11:46:20.758Z,9.80
2022-12-28T11:48:58.048Z,9.80
2022-12-28T11:51:29.188Z,9.80
2022-12-28T11:53:56.720Z,9.80
2022-12-28T11:56:24.302Z,9.80
2022-12-28T11:59:00.601Z,9.80
2022-12-28T12:01:28.164Z,9.80
2022-12-28T12:03:59.303Z,9.80
2022-12-28T12:06:45.323Z,9.80
2022-12-28T12:09:21.741Z,9.80
2022-12-28T12:11:49.218Z,9.80
2022-12-28T12:14:16.750Z,9.80
2022-12-28T12:16:51.245Z,9.80
2022-12-28T12:19:24.634Z,9.80
2022-12-28T12:22:10.047Z,9.80
2022-12-28T12:24:37.567Z,9.80
2022-12-28T12:27:10.308Z,9.80
2022-12-28T12:29:38.628Z,9.80
2022-12-28T12:32:06.187Z,10.00
2022-12-28T12:34:39.873Z,10.10
2022-12-28T12:37:25.763Z,10.10
2022-12-28T12:39:56.093Z,10.10
2022-12-28T12:42:32.967Z,10.10
2022-12-28T12:45:06.281Z,10.00
2022-12-28T12:47:49.491Z,10.00
2022-12-28T12:50:35.024Z,10.00
2022-12-28T12:53:05.304Z,10.20
2022-12-28T12:55:56.949Z,10.20
2022-12-28T12:58:24.541Z,10.20
2022-12-28T13:01:10.601Z,10.40
2022-12-28T13:03:41.741Z,10.30
2022-12-28T13:06:09.270Z,10.30
2022-12-28T13:08:36.810Z,10.20
2022-12-28T13:11:04.376Z,10.20
2022-12-28T13:13:34.860Z,10.40
2022-12-28T13:16:03.240Z,10.30
2022-12-28T13:18:46.339Z,10.30
2022-12-28T13:20:58.284Z,10.30
2022-12-28T13:23:25.845Z,10.20
2022-12-28T13:25:53.433Z,10.20
2022-12-28T13:28:20.962Z,10.20
2022-12-28T13:31:06.989Z,10.20
2022-12-28T13:33:34.434Z,10.10
2022-12-28T13:36:04.674Z,10.10
2022-12-28T13:38:33.401Z,10.10
2022-12-28T13:41:00.927Z,10.10
2022-12-28T13:43:28.454Z,10.30
2022-12-28T13:45:56.932Z,10.30
2022-12-28T13:48:24.450Z,10.20
2022-12-28T13:50:52.761Z,10.20
2022-12-28T13:53:20.334Z,10.20
2022-12-28T13:55:47.869Z,10.10
2022-12-28T13:58:24.230Z,10.10
2022-12-28T14:00:51.795Z,10.10
2022-12-28T14:03:19.286Z,10.10
2022-12-28T14:05:48.719Z,10.10
2022-12-28T14:08:16.181Z,10.00
2022-12-28T14:10:44.547Z,10.00
2022-12-28T14:13:12.233Z,10.00
2022-12-28T14:15:41.540Z,10.00
2022-12-28T14:18:07.310Z,10.30
2022-12-28T14:20:34.880Z,10.50
2022-12-28T14:23:20.762Z,10.50
2022-12-28T14:25:48.331Z,10.40
2022-12-28T14:28:40.351Z,10.40
2022-12-28T14:31:08.239Z,10.50
2022-12-28T14:33:35.727Z,10.70
2022-12-28T14:36:03.249Z,10.60
2022-12-28T14:38:30.811Z,10.50
2022-12-28T14:40:59.115Z,10.30
2022-12-28T14:43:29.472Z,10.30
2022-12-28T14:48:30.564Z,10.20
2022-12-28T14:51:07.828Z,10.10
2022-12-28T14:53:35.405Z,10.10
2022-12-28T14:56:02.893Z,10.00
2022-12-28T14:58:55.682Z,10.00
2022-12-28T15:00:25.412Z,10.20
2022-12-28T15:01:23.442Z,10.00
2022-12-28T15:03:50.736Z,10.30
2022-12-28T15:06:18.313Z,10.30
2022-12-28T15:08:52.408Z,10.20
2022-12-28T15:11:19.944Z,10.20
2022-12-28T15:13:47.520Z,10.10
2022-12-28T15:16:15.253Z,10.10
2022-12-28T15:18:42.600Z,10.10
2022-12-28T15:21:10.153Z,10.00
2022-12-28T15:23:37.674Z,10.00
2022-12-28T15:26:11.764Z,10.00
2022-12-28T15:28:39.353Z,9.90
2022-12-28T15:31:06.930Z,9.90
2022-12-28T15:33:37.090Z,9.90
2022-12-28T15:36:12.129Z,9.90
2022-12-28T15:38:35.014Z,9.80
2022-12-28T15:41:03.319Z,9.80
2022-12-28T15:43:30.883Z,9.80
2022-12-28T15:45:58.417Z,9.80
2022-12-28T15:48:26.703Z,9.80
2022-12-28T15:50:54.279Z,9.80
2022-12-28T15:53:21.812Z,9.80
2022-12-28T15:55:50.835Z,9.80
2022-12-28T15:58:18.305Z,9.80
2022-12-28T16:00:47.666Z,9.80
2022-12-28T16:03:14.212Z,10.00
2022-12-28T16:05:41.997Z,10.00
2022-12-28T16:08:09.519Z,10.00
2022-12-28T16:10:37.813Z,9.90
2022-12-28T16:13:05.494Z,9.90
2022-12-28T16:15:33.041Z,9.90
2022-12-28T16:18:00.570Z,9.90
2022-12-28T16:20:28.900Z,9.90
2022-12-28T16:22:56.440Z,9.90
2022-12-28T16:25:23.960Z,9.90
2022-12-28T16:27:52.305Z,9.90
2022-12-28T16:30:19.837Z,9.90
2022-12-28T16:32:47.365Z,9.90
2022-12-28T16:35:16.305Z,9.90
2022-12-28T16:37:43.799Z,9.90
2022-12-28T16:40:12.088Z,9.90
2022-12-28T16:42:41.308Z,9.90
2022-12-28T16:45:08.921Z,9.90
2022-12-28T16:47:42.654Z,9.90
2022-12-28T16:50:04.024Z,9.90
2022-12-28T16:52:31.551Z,9.90
2022-12-28T16:54:59.082Z,10.00
2022-12-28T16:57:28.074Z,10.00
2022-12-28T16:59:56.372Z,10.10
2022-12-28T17:02:23.977Z,10.10
2022-12-28T17:04:52.278Z,10.10
2022-12-28T17:07:19.866Z,10.10
2022-12-28T17:09:50.244Z,10.20
2022-12-28T17:12:15.228Z,10.20
2022-12-28T17:14:42.756Z,10.20
2022-12-28T17:17:10.277Z,10.30
2022-12-28T17:19:38.609Z,10.30
2022-12-28T17:22:06.147Z,10.30
2022-12-28T17:24:33.673Z,10.30
2022-12-28T17:27:07.770Z,10.30
2022-12-28T17:29:29.563Z,10.30
2022-12-28T17:31:57.147Z,10.30
2022-12-28T17:34:25.449Z,10.30
2022-12-28T17:36:53.767Z,10.30
2022-12-28T17:39:21.293Z,10.30
2022-12-28T17:41:49.628Z,10.30
2022-12-28T17:44:17.154Z,10.30
2022-12-28T17:46:44.702Z,10.40
2022-12-28T17:49:12.255Z,10.40
2022-12-28T17:51:42.271Z,10.40
2022-12-28T17:54:12.691Z,10.40
2022-12-28T17:56:40.257Z,10.40
2022-12-28T17:59:08.093Z,10.40
2022-12-28T18:01:36.434Z,10.40
2022-12-28T18:04:04.647Z,10.30
2022-12-28T18:06:32.163Z,10.30
2022-12-28T18:08:59.699Z,10.30
2022-12-28T18:11:27.274Z,10.30
2022-12-28T18:13:54.808Z,10.20
2022-12-28T18:16:22.370Z,10.20
2022-12-28T18:18:49.899Z,10.20
2022-12-28T18:21:21.318Z,10.10
2022-12-28T18:23:47.773Z,10.10
2022-12-28T18:26:15.348Z,10.00
2022-12-28T18:28:43.649Z,10.20
2022-12-28T18:31:11.322Z,10.20
2022-12-28T18:33:38.751Z,10.10
2022-12-28T18:36:08.632Z,10.00
2022-12-28T18:38:34.697Z,10.00
2022-12-28T18:41:03.018Z,9.90
2022-12-28T18:43:30.533Z,9.90
2022-12-28T18:46:00.525Z,9.80
2022-12-28T18:48:28.057Z,9.80
2022-12-28T18:51:01.502Z,9.70
2022-12-28T18:53:29.797Z,9.70
2022-12-28T18:56:02.963Z,9.70
2022-12-28T18:58:31.263Z,9.60
2022-12-28T19:01:01.887Z,9.60
2022-12-28T19:03:29.631Z,9.60
2022-12-28T19:06:02.835Z,9.50
2022-12-28T19:08:27.310Z,9.50
2022-12-28T19:10:55.830Z,9.50
2022-12-28T19:13:23.292Z,9.50
2022-12-28T19:15:50.858Z,9.50
2022-12-28T19:18:19.130Z,9.50
2022-12-28T19:20:46.664Z,9.50
2022-12-28T19:23:14.196Z,9.50
2022-12-28T19:25:43.641Z,9.40
2022-12-28T19:28:11.167Z,9.50
2022-12-28T19:30:39.450Z,9.40
2022-12-28T19:33:07.637Z,9.40
2022-12-28T19:35:35.160Z,9.40
2022-12-28T19:38:03.472Z,9.40
2022-12-28T19:40:31.028Z,9.50
2022-12-28T19:42:58.562Z,9.50
2022-12-28T19:45:26.853Z,9.50
2022-12-28T19:47:55.167Z,9.50
2022-12-28T19:50:22.692Z,9.50
2022-12-28T19:52:50.227Z,9.50
2022-12-28T19:55:18.620Z,9.50
2022-12-28T19:57:46.952Z,9.50
2022-12-28T20:00:14.627Z,9.50
2022-12-28T20:02:42.279Z,9.50
2022-12-28T20:05:10.565Z,9.60
2022-12-28T20:07:38.101Z,9.60
2022-12-28T20:10:05.950Z,9.60
2022-12-28T20:12:33.473Z,9.80
2022-12-28T20:15:01.784Z,9.80
2022-12-28T20:17:30.128Z,9.80
2022-12-28T20:19:57.660Z,9.80
2022-12-28T20:22:25.175Z,9.80
2022-12-28T20:24:53.282Z,9.80
2022-12-28T20:27:20.818Z,9.80
2022-12-28T20:29:48.343Z,9.80
2022-12-28T20:32:16.665Z,9.80
2022-12-28T20:34:44.199Z,9.80
2022-12-28T20:37:11.747Z,9.80
2022-12-28T20:39:40.067Z,9.80
2022-12-28T20:42:26.182Z,9.80
2022-12-28T20:44:53.743Z,9.90
2022-12-28T20:47:21.275Z,9.80
2022-12-28T20:49:48.794Z,9.80
2022-12-28T20:52:16.357Z,9.90
2022-12-28T20:54:43.881Z,9.90
2022-12-28T20:57:11.417Z,9.90
2022-12-28T20:59:38.998Z,9.90
2022-12-28T21:02:06.589Z,10.00
2022-12-28T21:04:34.561Z,10.00
2022-12-28T21:07:04.166Z,10.30
2022-12-28T21:09:31.221Z,10.30
2022-12-28T21:11:58.768Z,10.30
2022-12-28T21:14:26.330Z,10.30
2022-12-28T21:16:53.962Z,10.30
2022-12-28T21:19:22.458Z,10.30
2022-12-28T21:21:50.791Z,10.30
2022-12-28T21:24:18.326Z,10.30
2022-12-28T21:26:45.848Z,10.30
2022-12-28T21:29:14.317Z,10.30
2022-12-28T21:31:42.622Z,10.30
2022-12-28T21:34:10.070Z,10.30
2022-12-28T21:36:38.417Z,10.30
2022-12-28T21:39:06.059Z,10.30
2022-12-28T21:41:43.188Z,10.50
2022-12-28T21:44:11.484Z,10.50
2022-12-28T21:46:39.781Z,10.50
2022-12-28T21:49:07.335Z,10.50
2022-12-28T21:51:37.915Z,10.50
2022-12-28T21:54:05.447Z,10.50
2022-12-28T21:56:33.022Z,10.40
2022-12-28T21:59:00.564Z,10.40
2022-12-28T22:01:46.540Z,10.60
2022-12-28T22:04:38.229Z,10.60
2022-12-28T22:07:05.819Z,10.50
2022-12-28T22:09:42.083Z,10.50
2022-12-28T22:12:30.538Z,10.40
2022-12-28T22:15:16.446Z,10.40
2022-12-28T22:17:44.893Z,10.40
2022-12-28T22:20:12.425Z,10.40
2022-12-28T22:22:40.727Z,10.40
2022-12-28T22:25:08.375Z,10.40
2022-12-28T22:27:35.902Z,10.40
2022-12-28T22:30:03.488Z,10.40
2022-12-28T22:32:31.854Z,10.50
2022-12-28T22:35:00.183Z,10.50
2022-12-28T22:37:27.680Z,10.50
2022-12-28T22:39:55.249Z,10.50
2022-12-28T22:42:23.546Z,10.50
2022-12-28T22:44:51.079Z,10.50
2022-12-28T22:47:19.420Z,10.50
2022-12-28T22:49:46.957Z,10.50
2022-12-28T22:52:14.498Z,10.50
2022-12-28T22:54:42.369Z,10.50
2022-12-28T22:57:09.891Z,10.50
2022-12-28T22:59:38.191Z,10.50
2022-12-28T23:02:05.842Z,10.50
2022-12-28T23:04:33.277Z,10.50
2022-12-28T23:07:03.836Z,10.50
2022-12-28T23:09:28.370Z,10.60
2022-12-28T23:11:55.923Z,10.50
2022-12-28T23:14:43.293Z,10.50
2022-12-28T23:17:09.468Z,10.50
2022-12-28T23:19:55.513Z,10.50
2022-12-28T23:22:42.294Z,10.50
2022-12-28T23:25:31.524Z,10.50
2022-12-28T23:27:59.032Z,10.50
2022-12-28T23:30:26.603Z,10.50
2022-12-28T23:32:54.128Z,10.50
2022-12-28T23:35:21.665Z,10.50
2022-12-28T23:37:49.192Z,10.50
2022-12-28T23:40:17.514Z,10.50
2022-12-28T23:42:45.047Z,10.60
2022-12-28T23:45:12.612Z,10.60
2022-12-28T23:47:40.174Z,10.70
2022-12-28T23:50:07.773Z,10.80
2022-12-28T23:52:35.320Z,10.80
2022-12-28T23:55:03.140Z,10.70
2022-12-28T23:57:31.430Z,10.90
2022-12-28T23:59:59.033Z,10.90
